Time;durP1;ratioP1;P1;durP2;ratioP2;P2;SDS_P1;SDS_P2;PMS_P1;PMS_P2;Temp;Humidity;BMP_temperature;BMP_pressure;BME280_temperature;BME280_humidity;BME280_pressure;Samples;Min_cycle;Max_cycle;Signal;HPM_P1;HPM_P2
2021/04/14 06:29:58;;;;;;;;;;;;;;;4.03;97.07;97550.51;1797195;76;21177;-65
2021/04/14 06:32:27;;;;;;;;;;;;;;;4.00;97.49;97555.31;1810822;76;20443;-70
2021/04/14 06:34:56;;;;;;;;;;;;;;;3.99;97.72;97552.41;1819566;76;21807;-69
2021/04/14 06:37:24;;;;;;;;;;;;;;;3.99;97.15;97554.52;1814732;77;20748;-71
2021/04/14 06:40:18;;;;;;;;;;;;;;;3.99;97.31;97553.72;1777720;78;20736;-71
2021/04/14 06:42:59;;;;;;;;;;;;;;;4.01;97.50;97560.81;1739421;80;20696;-68
2021/04/14 06:45:28;;;;;;;;;;;;;;;4.00;97.66;97558.72;1814730;77;20775;-71
2021/04/14 06:48:22;;;;;;;;;;;;;;;4.01;96.94;97564.21;1811583;77;22009;-70
2021/04/14 06:51:08;;;;;;;;;;;;;;;4.01;97.13;97556.91;1808241;77;20471;-69
2021/04/14 06:53:43;;;;;;;;;;;;;;;4.04;97.35;97558.58;1801004;77;20583;-67
2021/04/14 06:56:16;;;;;;;;;;;;;;;4.07;95.90;97560.78;1773970;79;20582;-66
2021/04/14 06:58:54;;;;;;;;;;;;;;;4.05;95.34;97557.58;1809235;76;20513;-71
2021/04/14 07:01:25;;;;;;;;;;;;;;;4.03;95.40;97562.71;1830783;77;21888;-69
2021/04/14 07:04:03;;;;;;;;;;;;;;;4.01;95.15;97564.21;1824987;77;20489;-65
2021/04/14 07:06:38;;;;;;;;;;;;;;;4.01;96.69;97565.52;1814246;77;20541;-72
2021/04/14 07:09:20;;;;;;;;;;;;;;;4.01;96.62;97570.72;1821451;77;20547;-66
2021/04/14 07:11:48;;;;;;;;;;;;;;;4.01;96.22;97576.41;1823723;77;21019;-67
2021/04/14 07:14:16;;;;;;;;;;;;;;;4.02;97.68;97575.41;1819515;77;21960;-69
2021/04/14 07:17:02;;;;;;;;;;;;;;;4.05;96.28;97579.68;1823410;77;20500;-69
2021/04/14 07:19:48;;;;;;;;;;;;;;;4.05;95.53;97577.08;1822396;77;20486;-72
2021/04/14 07:22:36;;;;;;;;;;;;;;;4.05;94.64;97578.88;1807989;77;20552;-69
2021/04/14 07:25:07;;;;;;;;;;;;;;;4.01;94.64;97573.81;1802461;77;20707;-64
2021/04/14 07:27:51;;;;;;;;;;;;;;;3.97;94.34;97577.81;1759306;79;21902;-69
2021/04/14 07:30:35;;;;;;;;;;;;;;;3.97;93.87;97583.81;1750524;79;20578;-68
2021/04/14 07:33:13;;;;;;;;;;;;;;;3.96;93.12;97575.75;1719064;80;20607;-62
2021/04/14 07:35:44;;;;;;;;;;;;;;;3.92;93.34;97574.05;1702571;82;20543;-64
2021/04/14 07:38:37;;;;;;;;;;;;;;;3.85;93.15;97578.47;1698562;82;20743;-68
2021/04/14 07:41:36;;;;;;;;;;;;;;;3.77;93.49;97573.50;1719294;80;21891;-67
2021/04/14 07:44:11;;;;;;;;;;;;;;;3.71;94.17;97575.63;1782770;78;20493;-64
2021/04/14 07:46:43;;;;;;;;;;;;;;;3.65;94.60;97575.65;1776473;78;20490;-68
2021/04/14 07:49:11;;;;;;;;;;;;;;;3.63;94.88;97572.45;1757354;78;20483;-69
2021/04/14 07:51:40;;;;;;;;;;;;;;;3.60;95.13;97567.68;1750071;78;20564;-67
2021/04/14 07:54:14;;;;;;;;;;;;;;;3.58;95.63;97570.47;1780873;78;21784;-65
2021/04/14 07:56:45;;;;;;;;;;;;;;;3.54;95.77;97563.58;1789994;78;20381;-65
2021/04/14 07:59:30;;;;;;;;;;;;;;;3.51;96.16;97568.40;1773867;78;20623;-68
2021/04/14 08:02:01;;;;;;;;;;;;;;;3.47;96.90;97556.30;1776997;78;20490;-67
2021/04/14 08:04:35;;;;;;;;;;;;;;;3.42;98.17;97539.23;1772610;78;20473;-69
2021/04/14 08:07:19;;;;;;;;;;;;;;;3.40;100.00;97542.53;1764933;78;21916;-69
2021/04/14 08:09:54;;;;;;;;;;;;;;;3.43;100.00;97535.64;1788782;78;20769;-68
2021/04/14 08:12:25;;;;;;;;;;;;;;;3.46;100.00;97528.72;1776431;78;20234;-68
2021/04/14 08:15:20;;;;;;;;;;;;;;;3.52;100.00;97521.94;1783028;78;20474;-67
2021/04/14 08:17:49;;;;;;;;;;;;;;;3.58;100.00;97521.61;1765853;80;20716;-63
2021/04/14 08:20:29;;;;;;;;;;;;;;;3.60;100.00;97523.50;1745226;80;21860;-64
2021/04/14 08:23:10;;;;;;;;;;;;;;;3.61;100.00;97536.77;1742458;80;20675;-71
2021/04/14 08:25:45;;;;;;;;;;;;;;;3.72;100.00;97546.04;1752294;79;20531;-67
2021/04/14 08:28:13;;;;;;;;;;;;;;;3.88;100.00;97552.08;1764054;80;20216;-67
2021/04/14 08:30:41;;;;;;;;;;;;;;;4.00;100.00;97557.91;1757385;80;20728;-69
2021/04/14 08:33:15;;;;;;;;;;;;;;;4.08;100.00;97574.08;1762102;80;21898;-68
2021/04/14 08:35:48;;;;;;;;;;;;;;;4.14;100.00;97582.84;1745455;80;20390;-68
2021/04/14 08:38:23;;;;;;;;;;;;;;;4.16;100.00;97574.34;1759205;80;20573;-67
2021/04/14 08:40:57;;;;;;;;;;;;;;;4.14;100.00;97578.45;1748943;80;20220;-69
2021/04/14 08:43:29;;;;;;;;;;;;;;;4.08;98.97;97575.38;1749642;80;20581;-73
2021/04/14 08:46:13;;;;;;;;;;;;;;;4.04;99.23;97570.78;1738356;80;21898;-70
2021/04/14 08:48:44;;;;;;;;;;;;;;;4.01;100.00;97569.41;1749264;80;20631;-73
2021/04/14 08:51:13;;;;;;;;;;;;;;;4.02;99.65;97579.31;1742678;80;20337;-74
2021/04/14 08:53:42;;;;;;;;;;;;;;;3.98;98.24;97578.11;1758961;80;20588;-71
2021/04/14 08:56:09;;;;;;;;;;;;;;;3.98;99.15;97577.61;1750431;80;20522;-70
2021/04/14 08:58:38;;;;;;;;;;;;;;;4.01;99.06;97571.22;1731605;80;21894;-70
2021/04/14 09:01:09;;;;;;;;;;;;;;;4.05;99.63;97565.88;1744817;80;20495;-70
2021/04/14 09:03:40;;;;;;;;;;;;;;;4.10;99.81;97564.28;1715133;81;20631;-69
2021/04/14 09:06:10;;;;;;;;;;;;;;;4.21;98.67;97564.91;1754329;80;38992;-70
2021/04/14 09:08:42;;;;;;;;;;;;;;;4.27;96.00;97569.77;1751886;80;20616;-69
2021/04/14 09:11:26;;;;;;;;;;;;;;;4.29;94.88;97575.57;1748174;80;22105;-72
2021/04/14 09:14:03;;;;;;;;;;;;;;;4.30;94.77;97578.47;1746947;80;20683;-70
2021/04/14 09:16:41;;;;;;;;;;;;;;;4.29;94.17;97572.47;1732240;81;20217;-71
2021/04/14 09:19:23;;;;;;;;;;;;;;;4.27;94.18;97575.77;1734910;80;20315;-74
2021/04/14 09:22:04;;;;;;;;;;;;;;;4.28;93.53;97566.97;1741114;80;20485;-72
2021/04/14 09:24:54;;;;;;;;;;;;;;;4.27;94.22;97570.57;1740268;80;20757;-64
2021/04/14 09:27:25;;;;;;;;;;;;;;;4.27;92.61;97575.77;1738023;80;20487;-71
2021/04/14 09:30:30;;;;;;;;;;;;;;;4.21;92.82;97575.31;1746393;80;20240;-72
2021/04/14 09:33:07;;;;;;;;;;;;;;;4.14;92.30;97574.55;1742276;80;20500;-71
2021/04/14 09:35:52;;;;;;;;;;;;;;;4.07;90.89;97581.58;1737420;80;20565;-69
2021/04/14 09:38:29;;;;;;;;;;;;;;;4.05;92.36;97574.98;1741824;80;20712;-72
2021/04/14 09:41:26;;;;;;;;;;;;;;;4.04;92.92;97576.78;1741991;80;20530;-69
2021/04/14 09:43:58;;;;;;;;;;;;;;;4.03;93.18;97572.61;1759356;80;20599;-79
2021/04/14 09:46:31;;;;;;;;;;;;;;;4.07;92.59;97572.98;1748478;80;20494;-71
2021/04/14 09:49:17;;;;;;;;;;;;;;;4.08;92.43;97570.68;1743272;80;20614;-73
2021/04/14 09:51:59;;;;;;;;;;;;;;;4.06;91.76;97573.48;1723854;80;20957;-70
2021/04/14 09:54:30;;;;;;;;;;;;;;;4.03;90.50;97572.61;1745477;80;20590;-71
2021/04/14 09:57:00;;;;;;;;;;;;;;;4.01;90.85;97581.11;1746960;80;20478;-69
2021/04/14 09:59:38;;;;;;;;;;;;;;;4.04;91.77;97572.08;1738702;80;20390;-69
2021/04/14 10:02:15;;;;;;;;;;;;;;;4.10;92.14;97569.48;1741362;80;20493;-72
2021/04/14 10:04:43;;;;;;;;;;;;;;;4.12;89.92;97584.85;1738052;80;22045;-72
2021/04/14 10:07:23;;;;;;;;;;;;;;;4.06;89.73;97575.28;1742265;80;20650;-71
2021/04/14 10:10:05;;;;;;;;;;;;;;;4.04;90.01;97574.69;1745646;80;20499;-70
2021/04/14 10:12:33;;;;;;;;;;;;;;;4.02;90.60;97571.02;1707763;82;20500;-75
2021/04/14 10:15:04;;;;;;;;;;;;;;;4.06;90.47;97579.98;1680974;83;20626;-71
2021/04/14 10:17:31;;;;;;;;;;;;;;;4.09;91.17;97572.28;1669044;83;21906;-74
2021/04/14 10:20:13;;;;;;;;;;;;;;;4.13;91.76;97573.45;1680237;83;20537;-67
2021/04/14 10:22:47;;;;;;;;;;;;;;;4.14;90.13;97571.14;1717654;80;20543;-70
2021/04/14 10:25:23;;;;;;;;;;;;;;;4.15;90.03;97576.14;1727414;81;20636;-69
2021/04/14 10:28:01;;;;;;;;;;;;;;;4.16;89.92;97582.95;1715328;81;20586;-70
2021/04/14 10:30:30;;;;;;;;;;;;;;;4.12;88.39;97582.25;1716521;81;21913;-73
2021/04/14 10:33:03;;;;;;;;;;;;;;;4.09;89.33;97576.98;1717164;81;20539;-69
2021/04/14 10:35:31;;;;;;;;;;;;;;;4.13;90.86;97576.84;1707480;81;20585;-69
2021/04/14 10:37:59;;;;;;;;;;;;;;;4.19;90.60;97585.62;1713485;81;20506;-71
2021/04/14 10:40:33;;;;;;;;;;;;;;;4.19;89.59;97588.22;1716119;82;20610;-68
2021/04/14 10:43:20;;;;;;;;;;;;;;;4.17;89.30;97582.45;1718424;80;20553;-65
2021/04/14 10:45:55;;;;;;;;;;;;;;;4.15;89.19;97585.75;1720096;81;20488;-68
2021/04/14 10:48:24;;;;;;;;;;;;;;;4.15;90.22;97588.34;1718606;81;20711;-74
2021/04/14 10:51:08;;;;;;;;;;;;;;;4.18;90.80;97609.52;1716896;81;20609;-70
2021/04/14 10:53:39;;;;;;;;;;;;;;;4.22;88.86;97591.72;1662973;81;20688;-69
2021/04/14 10:56:28;;;;;;;;;;;;;;;4.22;89.13;97600.32;1713859;81;21784;-68
2021/04/14 10:58:57;;;;;;;;;;;;;;;4.23;89.61;97598.02;1717928;81;20607;-68
2021/04/14 11:01:37;;;;;;;;;;;;;;;4.26;88.81;97597.58;1712833;81;20300;-71
2021/04/14 11:04:18;;;;;;;;;;;;;;;4.27;89.01;97599.19;1680217;83;20490;-66
2021/04/14 11:06:50;;;;;;;;;;;;;;;4.34;88.94;97599.14;1710872;81;20701;-71
2021/04/14 11:09:18;;;;;;;;;;;;;;;4.37;89.19;97607.05;1719915;81;21789;-71
2021/04/14 11:11:47;;;;;;;;;;;;;;;4.39;87.77;97605.05;1709372;81;20493;-66
2021/04/14 11:14:19;;;;;;;;;;;;;;;4.35;88.38;97612.95;1712763;81;20560;-74
2021/04/14 11:16:48;;;;;;;;;;;;;;;4.36;88.92;97606.75;1724182;80;20521;-68
2021/04/14 11:19:22;;;;;;;;;;;;;;;4.34;88.25;97605.65;1739180;80;20577;-69
2021/04/14 11:22:09;;;;;;;;;;;;;;;4.29;86.94;97618.49;1739025;80;21882;-68
2021/04/14 11:24:51;;;;;;;;;;;;;;;4.23;87.90;97614.13;1743388;80;20576;-70
2021/04/14 11:27:25;;;;;;;;;;;;;;;4.19;88.89;97612.42;1746481;80;20501;-65
2021/04/14 11:29:54;;;;;;;;;;;;;;;4.17;88.94;97606.66;1747634;80;20598;-67
2021/04/14 11:32:23;;;;;;;;;;;;;;;4.17;88.88;97613.66;1754188;80;20660;-70
2021/04/14 11:34:55;;;;;;;;;;;;;;;4.15;88.87;97601.35;1742220;80;21915;-66
2021/04/14 11:37:38;;;;;;;;;;;;;;;4.16;89.44;97617.26;1742492;80;20493;-69
2021/04/14 11:40:20;;;;;;;;;;;;;;;4.17;89.31;97605.86;1740109;80;20281;-69
2021/04/14 11:42:53;;;;;;;;;;;;;;;4.21;90.15;97600.02;1741223;80;20607;-68
2021/04/14 11:45:32;;;;;;;;;;;;;;;4.26;88.97;97607.19;1732942;80;20821;-66
2021/04/14 11:48:14;;;;;;;;;;;;;;;4.26;89.74;97606.69;1741132;80;21364;-67
2021/04/14 11:50:43;;;;;;;;;;;;;;;4.26;88.30;97614.49;1745033;80;20533;-67
2021/04/14 11:53:36;;;;;;;;;;;;;;;4.24;88.83;97610.52;1733730;80;20218;-67
2021/04/14 11:56:05;;;;;;;;;;;;;;;4.23;90.10;97605.82;1745685;80;20218;-67
2021/04/14 11:58:36;;;;;;;;;;;;;;;4.28;89.73;97607.78;1752687;80;20589;-68
2021/04/14 12:01:05;;;;;;;;;;;;;;;4.27;88.54;97603.09;1751022;80;22005;-67
2021/04/14 12:03:38;;;;;;;;;;;;;;;4.24;88.08;97602.72;1751954;80;20265;-67
2021/04/14 12:06:07;;;;;;;;;;;;;;;4.26;88.72;97595.48;1757132;80;20400;-70
2021/04/14 12:08:35;;;;;;;;;;;;;;;4.27;88.92;97596.58;1762492;80;20550;-66
2021/04/14 12:11:07;;;;;;;;;;;;;;;4.25;88.15;97597.28;1754267;80;20596;-68
2021/04/14 12:13:35;;;;;;;;;;;;;;;4.19;87.93;97597.32;1757386;80;21919;-67
2021/04/14 12:16:05;;;;;;;;;;;;;;;4.16;88.78;97595.95;1756557;80;20588;-66
2021/04/14 12:18:34;;;;;;;;;;;;;;;4.18;88.02;97591.81;1748356;80;20697;-66
2021/04/14 12:21:04;;;;;;;;;;;;;;;4.14;87.26;97591.45;1753919;80;20591;-68
2021/04/14 12:23:32;;;;;;;;;;;;;;;4.12;87.99;97584.85;1753182;80;20543;-69
2021/04/14 12:26:03;;;;;;;;;;;;;;;4.08;87.63;97594.88;1752162;80;20890;-64
2021/04/14 12:28:33;;;;;;;;;;;;;;;4.07;88.38;97586.78;1755340;80;20395;-64
2021/04/14 12:31:01;;;;;;;;;;;;;;;4.09;88.29;97583.98;1760724;80;20587;-61
2021/04/14 12:33:34;;;;;;;;;;;;;;;4.09;87.74;97602.19;1754064;80;20254;-67
2021/04/14 12:36:13;;;;;;;;;;;;;;;4.05;88.24;97595.78;1755050;80;20477;-66
2021/04/14 12:38:42;;;;;;;;;;;;;;;4.04;88.49;97595.48;1748921;80;21889;-67
2021/04/14 12:41:11;;;;;;;;;;;;;;;4.05;89.13;97598.38;1750238;79;20591;-62
2021/04/14 12:43:41;;;;;;;;;;;;;;;4.04;89.16;97600.69;1754233;80;20226;-63
2021/04/14 12:46:09;;;;;;;;;;;;;;;4.08;88.04;97590.98;1750554;80;20543;-63
2021/04/14 12:48:42;;;;;;;;;;;;;;;4.08;87.76;97590.98;1753830;80;20774;-62
2021/04/14 12:51:16;;;;;;;;;;;;;;;4.07;88.02;97595.08;1758198;80;21929;-60
2021/04/14 12:53:47;;;;;;;;;;;;;;;4.06;88.41;97594.28;1761187;79;20473;-66
2021/04/14 12:56:25;;;;;;;;;;;;;;;4.07;88.39;97591.98;1757670;80;20488;-67
2021/04/14 12:58:53;;;;;;;;;;;;;;;4.07;88.13;97591.98;1754083;80;20511;-67
2021/04/14 13:01:21;;;;;;;;;;;;;;;4.05;88.60;97596.59;1768652;80;20765;-66
2021/04/14 13:04:08;;;;;;;;;;;;;;;4.04;88.53;97591.08;1767292;80;21941;-67
2021/04/14 13:06:47;;;;;;;;;;;;;;;4.07;88.86;97596.38;1732609;81;20619;-73
2021/04/14 13:09:16;;;;;;;;;;;;;;;4.10;89.06;97600.69;1732741;80;20485;-65
2021/04/14 13:12:12;;;;;;;;;;;;;;;4.11;89.16;97596.25;1730853;81;20329;-67
2021/04/14 13:14:42;;;;;;;;;;;;;;;4.10;88.22;97605.09;1732646;80;20330;-69
2021/04/14 13:17:12;;;;;;;;;;;;;;;4.06;87.86;97603.39;1736536;81;22126;-65
2021/04/14 13:19:42;;;;;;;;;;;;;;;4.02;88.30;97604.02;1733050;80;20382;-68
2021/04/14 13:22:31;;;;;;;;;;;;;;;4.00;89.08;97602.91;1727691;81;20218;-65
2021/04/14 13:25:06;;;;;;;;;;;;;;;3.98;87.98;97604.11;1729032;81;20502;-66
2021/04/14 13:27:54;;;;;;;;;;;;;;;3.88;88.43;97598.88;1733830;81;20232;-69
2021/04/14 13:30:43;;;;;;;;;;;;;;;3.84;89.39;97608.06;1721600;81;21916;-67
2021/04/14 13:33:36;;;;;;;;;;;;;;;3.81;88.96;97604.59;1720817;81;20509;-67
2021/04/14 13:36:11;;;;;;;;;;;;;;;3.82;88.43;97600.97;1724567;81;20226;-67
2021/04/14 13:38:42;;;;;;;;;;;;;;;3.80;88.76;97602.20;1736169;80;20477;-71
2021/04/14 13:41:14;;;;;;;;;;;;;;;3.78;89.16;97610.19;1728221;81;20515;-70
2021/04/14 13:43:46;;;;;;;;;;;;;;;3.79;89.84;97613.59;1730172;81;20960;-69
2021/04/14 13:46:21;;;;;;;;;;;;;;;3.78;88.83;97621.89;1738693;81;20743;-67
2021/04/14 13:49:12;;;;;;;;;;;;;;;3.75;89.28;97613.69;1726436;81;20511;-65
2021/04/14 13:51:49;;;;;;;;;;;;;;;3.77;89.64;97612.98;1727534;81;20540;-69
2021/04/14 13:54:21;;;;;;;;;;;;;;;3.76;89.12;97616.09;1719103;81;20784;-66
2021/04/14 13:56:53;;;;;;;;;;;;;;;3.75;88.77;97616.28;1720727;81;20670;-64
2021/04/14 13:59:26;;;;;;;;;;;;;;;3.73;88.92;97617.02;1726077;81;20395;-73
